Pagina principale
METAR-TAF:

METAR-TAF

Aeroporti :

Aeroporto di Forlì

Forlì, Italia

latitudine: 44-12N, longitudine: 012-04E, altezza: 27 m

Osservazione

Il bollettino è stato emesso 22 minuti fa, alle 11:50 UTC
Vento 5 kt da nord-ovest
Temperature 3°C
Umidità 52%
Pressione 1036 hPa
Visibilità 10 km o più
Nubi sparse ad un'altezza di 4500 ft

METAR: LIPK 091150Z 31005KT 9999 SCT045 03/M06 Q1036

Ora: 13:12 (12:12 UTC)

Previsione

Il bollettino è stato emesso 1 ora e 12 minuti fa, alle 11:00 UTC
Previsione valida dal 09 alle 12 UTC al 10 alle 12 UTC
Vento 12 kt da nord-ovest
Visibilità 10 km o più
Nuvoloso ad un'altezza di 3000 ft
Evoluzione graduale
dal 09 alle 15 UTC al 09 alle 17 UTC
Vento 5 kt da direzioni variabili
Evoluzione graduale
dal 10 alle 09 UTC al 10 alle 11 UTC
Vento 10 kt da nord-ovest

TAF: LIPK 091100Z 0912/1012 32012KT 9999 BKN030 BECMG 0915/0917 VRB05KT BECMG 1009/1011 32010KT

Osservazioni e previsioni meteorologiche di più di 4000 aeroporti (messaggi METAR e TAF).

Le stazioni disponibili sono rappresentate dai dischi gialli e rossi sulla carta.

Puntare il mouse per vedere il nome della stazione.

Clicca sopra per visualizzare le osservazioni e previsioni meteorologiche.

Per cambiare la mappa : fare clic sui pulsanti verdi con una croce nera per ingrandire, il pulsante verde con un trattino per diminuire, o sulla freccia verde per le mappe adiacenti.


METAR-TAF: